createdAt,value
2023-02-25T00:00:36.811Z,59.70
2023-02-25T00:03:14.320Z,59.67
2023-02-25T00:05:42.483Z,59.69
2023-02-25T00:08:11.146Z,59.72
2023-02-25T00:10:39.172Z,59.60
2023-02-25T00:13:17.665Z,59.52
2023-02-25T00:15:46.367Z,59.51
2023-02-25T00:18:14.908Z,59.57
2023-02-25T00:20:42.926Z,59.53
2023-02-25T00:23:11.058Z,59.50
2023-02-25T00:25:39.316Z,59.54
2023-02-25T00:28:07.709Z,59.46
2023-02-25T00:30:35.839Z,59.52
2023-02-25T00:33:04.187Z,59.60
2023-02-25T00:35:32.403Z,59.55
2023-02-25T00:38:13.836Z,59.58
2023-02-25T00:40:43.669Z,59.66
2023-02-25T00:43:11.695Z,59.83
2023-02-25T00:45:40.172Z,59.86
2023-02-25T00:48:08.524Z,59.87
2023-02-25T00:50:36.518Z,60.01
2023-02-25T00:53:04.623Z,60.05
2023-02-25T00:55:32.812Z,60.19
2023-02-25T00:58:01.517Z,60.08
2023-02-25T01:00:30.505Z,60.17
2023-02-25T01:02:58.724Z,60.17
2023-02-25T01:05:27.811Z,60.32
2023-02-25T01:07:55.945Z,60.30
2023-02-25T01:10:24.216Z,60.18
2023-02-25T01:12:52.959Z,60.21
2023-02-25T01:15:21.121Z,60.32
2023-02-25T01:17:49.656Z,60.24
2023-02-25T01:20:17.872Z,60.30
2023-02-25T01:22:45.972Z,60.35
2023-02-25T01:25:15.522Z,60.11
2023-02-25T01:27:44.077Z,60.29
2023-02-25T01:30:12.338Z,60.25
2023-02-25T01:32:40.851Z,60.08
2023-02-25T01:35:09.172Z,60.26
2023-02-25T01:37:37.050Z,60.57
2023-02-25T01:40:06.193Z,60.24
2023-02-25T01:42:34.081Z,60.26
2023-02-25T01:45:23.732Z,60.27
2023-02-25T01:47:58.093Z,60.49
2023-02-25T01:50:31.949Z,60.51
2023-02-25T01:53:01.250Z,60.54
2023-02-25T01:55:29.297Z,60.62
2023-02-25T01:57:59.023Z,60.39
2023-02-25T02:00:28.431Z,60.29
2023-02-25T02:02:57.751Z,60.25
2023-02-25T02:05:30.792Z,60.45
2023-02-25T02:07:59.133Z,60.43
2023-02-25T02:10:27.193Z,60.60
2023-02-25T02:12:55.770Z,60.68
2023-02-25T02:15:23.890Z,60.65
2023-02-25T02:18:02.863Z,60.75
2023-02-25T02:20:33.466Z,60.77
2023-02-25T02:23:01.467Z,60.91
2023-02-25T02:25:48.153Z,60.83
2023-02-25T02:28:31.318Z,60.78
2023-02-25T02:31:10.899Z,60.88
2023-02-25T02:34:02.330Z,61.13
2023-02-25T02:36:48.620Z,61.20
2023-02-25T02:39:19.395Z,61.30
2023-02-25T02:41:51.012Z,61.37
2023-02-25T02:44:29.495Z,61.33
2023-02-25T02:47:00.598Z,61.68
2023-02-25T02:49:32.103Z,61.74
2023-02-25T02:52:02.392Z,61.71
2023-02-25T02:54:35.723Z,61.78
2023-02-25T02:57:05.348Z,61.99
2023-02-25T02:59:36.179Z,61.96
2023-02-25T03:02:08.682Z,61.81
2023-02-25T03:04:39.182Z,62.13
2023-02-25T03:07:10.085Z,62.20
2023-02-25T03:09:43.772Z,62.16
2023-02-25T03:12:12.691Z,62.23
2023-02-25T03:14:41.129Z,61.82
2023-02-25T03:17:15.748Z,61.89
2023-02-25T03:19:56.595Z,61.41
2023-02-25T03:22:30.102Z,61.20
2023-02-25T03:25:01.226Z,60.59
2023-02-25T03:27:33.798Z,59.61
2023-02-25T03:30:08.372Z,59.21
2023-02-25T03:32:38.296Z,59.28
2023-02-25T03:35:07.218Z,58.90
2023-02-25T03:37:37.200Z,58.81
2023-02-25T03:40:06.979Z,58.78
2023-02-25T03:42:35.876Z,57.97
2023-02-25T03:45:05.577Z,57.55
2023-02-25T03:47:36.023Z,57.54
2023-02-25T03:50:09.686Z,57.34
2023-02-25T03:52:39.635Z,57.41
2023-02-25T03:55:09.059Z,57.30
2023-02-25T03:57:40.498Z,57.26
2023-02-25T04:00:10.088Z,57.18
2023-02-25T04:02:38.199Z,56.95
2023-02-25T04:05:06.641Z,56.68
2023-02-25T04:07:34.663Z,56.58
2023-02-25T04:10:03.557Z,56.17
2023-02-25T04:12:31.651Z,56.36
2023-02-25T04:15:00.556Z,55.95
2023-02-25T04:17:29.661Z,55.49
2023-02-25T04:19:57.826Z,55.33
2023-02-25T04:22:25.922Z,54.93
2023-02-25T04:24:54.555Z,54.34
2023-02-25T04:27:23.142Z,54.13
2023-02-25T04:29:51.240Z,53.89
2023-02-25T04:32:19.342Z,53.67
2023-02-25T04:34:47.741Z,53.43
2023-02-25T04:37:15.881Z,53.27
2023-02-25T04:39:44.197Z,53.60
2023-02-25T04:42:12.647Z,53.01
2023-02-25T04:44:40.636Z,52.89
2023-02-25T04:47:08.668Z,52.52
2023-02-25T04:49:36.621Z,52.52
2023-02-25T04:52:04.635Z,52.18
2023-02-25T04:54:32.576Z,51.56
2023-02-25T04:57:00.767Z,51.35
2023-02-25T04:59:28.853Z,50.86
2023-02-25T05:01:56.964Z,50.50
2023-02-25T05:04:25.277Z,50.35
2023-02-25T05:06:53.701Z,50.10
2023-02-25T05:09:21.787Z,50.08
2023-02-25T05:11:49.939Z,49.85
2023-02-25T05:14:18.190Z,49.32
2023-02-25T05:16:46.296Z,49.14
2023-02-25T05:19:20.925Z,48.91
2023-02-25T05:21:53.294Z,48.72
2023-02-25T05:24:21.190Z,48.61
2023-02-25T05:26:49.453Z,48.29
2023-02-25T05:29:18.970Z,47.92
2023-02-25T05:31:47.625Z,47.62
2023-02-25T05:34:16.564Z,47.10
2023-02-25T05:36:44.635Z,47.22
2023-02-25T05:39:13.026Z,46.87
2023-02-25T05:41:41.816Z,46.92
2023-02-25T05:44:13.206Z,46.75
2023-02-25T05:46:41.118Z,46.35
2023-02-25T05:49:09.324Z,46.01
2023-02-25T05:51:37.546Z,46.05
2023-02-25T05:54:05.567Z,45.98
2023-02-25T05:56:33.659Z,46.03
2023-02-25T05:59:02.958Z,45.90
2023-02-25T06:01:31.037Z,46.36
2023-02-25T06:04:00.460Z,46.83
2023-02-25T06:06:30.147Z,47.12
2023-02-25T06:08:58.326Z,47.18
2023-02-25T06:11:27.715Z,47.13
2023-02-25T06:13:57.285Z,47.22
2023-02-25T06:16:26.870Z,47.16
2023-02-25T06:18:55.081Z,47.20
2023-02-25T06:21:23.331Z,46.91
2023-02-25T06:23:52.050Z,46.82
2023-02-25T06:26:20.091Z,47.08
2023-02-25T06:28:48.638Z,47.04
2023-02-25T06:31:18.193Z,47.01
2023-02-25T06:33:46.506Z,47.18
2023-02-25T06:36:15.339Z,46.92
2023-02-25T06:38:44.439Z,46.99
2023-02-25T06:41:20.625Z,46.81
2023-02-25T06:43:49.032Z,46.44
2023-02-25T06:46:17.118Z,46.15
2023-02-25T06:48:45.153Z,45.91
2023-02-25T06:51:13.531Z,45.38
2023-02-25T06:53:42.807Z,45.05
2023-02-25T06:56:12.699Z,44.48
2023-02-25T06:58:41.426Z,44.06
2023-02-25T07:01:11.573Z,43.81
2023-02-25T07:03:39.990Z,43.56
2023-02-25T07:06:08.285Z,43.37
2023-02-25T07:08:36.566Z,42.94
2023-02-25T07:11:20.524Z,43.17
2023-02-25T07:13:49.643Z,43.15
2023-02-25T07:16:18.049Z,42.28
2023-02-25T07:18:46.121Z,41.86
2023-02-25T07:21:14.134Z,41.59
2023-02-25T07:23:42.437Z,40.55
2023-02-25T07:26:11.655Z,38.96
2023-02-25T07:28:40.473Z,37.47
2023-02-25T07:31:13.960Z,36.83
2023-02-25T07:33:42.070Z,36.61
2023-02-25T07:36:11.736Z,36.74
2023-02-25T07:38:39.857Z,36.78
2023-02-25T07:41:09.404Z,36.64
2023-02-25T07:43:37.435Z,35.81
2023-02-25T07:46:07.274Z,35.01
2023-02-25T07:48:36.925Z,34.47
2023-02-25T07:51:09.939Z,34.05
2023-02-25T07:53:38.286Z,32.80
2023-02-25T07:56:07.426Z,31.45
2023-02-25T07:58:36.507Z,31.46
2023-02-25T08:01:11.962Z,30.88
2023-02-25T08:03:39.955Z,30.79
2023-02-25T08:06:08.074Z,30.78
2023-02-25T08:08:36.875Z,30.72
2023-02-25T08:11:06.079Z,30.27
2023-02-25T08:13:34.542Z,30.14
2023-02-25T08:16:07.251Z,30.08
2023-02-25T08:18:35.583Z,30.00
2023-02-25T08:21:04.147Z,29.43
2023-02-25T08:23:32.563Z,28.89
2023-02-25T08:26:00.984Z,28.38
2023-02-25T08:28:31.795Z,27.47
2023-02-25T08:31:01.717Z,26.35
2023-02-25T08:33:30.516Z,25.66
2023-02-25T08:36:06.305Z,24.09
2023-02-25T08:38:34.418Z,23.84
2023-02-25T08:41:02.458Z,23.08
2023-02-25T08:43:32.353Z,22.05
2023-02-25T08:46:01.274Z,21.02
2023-02-25T08:48:29.905Z,20.00
2023-02-25T08:51:03.787Z,19.33
2023-02-25T08:53:31.820Z,18.56
2023-02-25T08:56:02.022Z,18.10
2023-02-25T08:58:30.652Z,17.81
2023-02-25T09:00:58.757Z,17.43
2023-02-25T09:03:26.772Z,16.75
2023-02-25T09:05:55.489Z,16.85
2023-02-25T09:08:23.487Z,16.99
2023-02-25T09:10:52.066Z,17.31
2023-02-25T09:13:20.398Z,16.83
2023-02-25T09:15:56.574Z,16.20
2023-02-25T09:18:25.509Z,15.83
2023-02-25T09:20:53.590Z,15.42
2023-02-25T09:23:21.810Z,15.73
2023-02-25T09:25:50.248Z,15.78
2023-02-25T09:28:18.256Z,15.06
2023-02-25T09:30:47.490Z,15.18
2023-02-25T09:33:16.325Z,15.57
2023-02-25T09:35:44.988Z,15.86
2023-02-25T09:38:12.900Z,16.29
2023-02-25T09:40:45.282Z,16.91
2023-02-25T09:43:20.429Z,17.39
2023-02-25T09:45:49.725Z,17.65
2023-02-25T09:48:20.252Z,18.17
2023-02-25T09:50:50.746Z,18.39
2023-02-25T09:53:18.797Z,18.15
2023-02-25T09:55:48.584Z,17.79
2023-02-25T09:58:35.879Z,17.63
2023-02-25T10:01:16.596Z,17.16
2023-02-25T10:03:50.708Z,16.93
2023-02-25T10:06:18.679Z,16.71
2023-02-25T10:09:05.450Z,16.69
2023-02-25T10:12:03.285Z,16.81
2023-02-25T10:14:43.224Z,17.37
2023-02-25T10:17:16.048Z,17.71
2023-02-25T10:19:46.828Z,17.80
2023-02-25T10:22:26.724Z,18.21
2023-02-25T10:24:58.606Z,18.61
2023-02-25T10:27:33.233Z,18.30
2023-02-25T10:30:22.440Z,18.10
2023-02-25T10:32:50.968Z,17.97
2023-02-25T10:35:22.046Z,18.24
2023-02-25T10:37:50.564Z,18.23
2023-02-25T10:40:20.619Z,18.32
2023-02-25T10:42:53.706Z,18.37
2023-02-25T10:45:29.171Z,18.53
2023-02-25T10:48:13.039Z,18.73
2023-02-25T10:50:46.227Z,18.66
2023-02-25T10:53:18.390Z,18.50
2023-02-25T10:55:48.585Z,18.25
2023-02-25T10:58:25.937Z,18.30
2023-02-25T11:00:56.065Z,18.14
2023-02-25T11:03:25.018Z,17.80
2023-02-25T11:06:07.460Z,17.64
2023-02-25T11:08:35.686Z,17.61
2023-02-25T11:11:05.217Z,17.31
2023-02-25T11:13:35.967Z,16.26
2023-02-25T11:16:06.897Z,16.11
2023-02-25T11:18:35.806Z,15.93
2023-02-25T11:21:08.103Z,15.75
2023-02-25T11:23:42.419Z,15.23
2023-02-25T11:26:17.999Z,14.95
2023-02-25T11:28:48.308Z,14.74
2023-02-25T11:31:22.353Z,14.59
2023-02-25T11:34:00.687Z,14.58
2023-02-25T11:36:33.846Z,14.46
2023-02-25T11:39:07.393Z,14.23
2023-02-25T11:41:35.501Z,14.13
2023-02-25T11:44:32.733Z,14.27
2023-02-25T11:47:03.675Z,13.86
2023-02-25T11:49:43.007Z,13.64
2023-02-25T11:52:11.279Z,13.73
2023-02-25T11:54:51.061Z,13.74
2023-02-25T11:57:19.007Z,13.42
2023-02-25T11:59:50.601Z,13.38
2023-02-25T12:02:41.143Z,12.91
2023-02-25T12:05:12.381Z,12.65
2023-02-25T12:07:55.347Z,12.26
2023-02-25T12:10:35.557Z,12.16
2023-02-25T12:13:06.697Z,12.57
2023-02-25T12:15:53.322Z,13.00
2023-02-25T12:18:40.390Z,13.59
2023-02-25T12:21:41.897Z,13.60
2023-02-25T12:24:19.310Z,13.20
2023-02-25T12:27:02.965Z,13.40
2023-02-25T12:29:34.201Z,13.88
2023-02-25T12:32:21.062Z,14.16
2023-02-25T12:35:12.549Z,14.64
2023-02-25T12:38:03.356Z,14.51
2023-02-25T12:40:50.529Z,14.55
2023-02-25T12:43:18.481Z,14.64
2023-02-25T12:46:09.566Z,14.64
2023-02-25T12:48:56.540Z,14.58
2023-02-25T12:51:34.238Z,14.47
2023-02-25T12:54:22.627Z,14.68
2023-02-25T12:57:03.266Z,14.37
2023-02-25T12:59:34.210Z,14.58
2023-02-25T13:02:18.200Z,14.95
2023-02-25T13:04:58.195Z,14.99
2023-02-25T13:07:44.946Z,15.15
2023-02-25T13:10:24.461Z,15.45
2023-02-25T13:12:52.443Z,15.56
2023-02-25T13:15:23.661Z,15.70
2023-02-25T13:17:58.191Z,15.93
2023-02-25T13:20:45.541Z,15.90
2023-02-25T13:23:22.595Z,16.11
2023-02-25T13:26:03.623Z,16.20
2023-02-25T13:28:42.588Z,16.17
2023-02-25T13:31:29.715Z,16.21
2023-02-25T13:34:18.023Z,16.35
2023-02-25T13:36:49.063Z,16.31
2023-02-25T13:39:39.486Z,16.52
2023-02-25T13:42:27.925Z,16.74
2023-02-25T13:45:16.493Z,16.68
2023-02-25T13:48:13.949Z,16.61
2023-02-25T13:50:48.616Z,16.97
2023-02-25T13:53:17.155Z,17.04
2023-02-25T13:56:04.334Z,17.14
2023-02-25T13:59:05.023Z,17.33
2023-02-25T14:01:38.743Z,17.58
2023-02-25T14:04:26.216Z,18.11
2023-02-25T14:07:13.124Z,18.18
2023-02-25T14:09:50.812Z,18.51
2023-02-25T14:12:41.870Z,18.93
2023-02-25T14:15:18.799Z,18.91
2023-02-25T14:17:47.248Z,18.48
2023-02-25T14:20:24.372Z,18.51
2023-02-25T14:22:56.973Z,18.92
2023-02-25T14:25:25.178Z,18.75
2023-02-25T14:28:19.710Z,18.79
2023-02-25T14:31:00.855Z,19.09
2023-02-25T14:33:32.089Z,19.59
2023-02-25T14:36:15.746Z,19.72
2023-02-25T14:38:55.928Z,20.38
2023-02-25T14:41:35.757Z,22.55
2023-02-25T14:44:07.683Z,25.02
2023-02-25T14:47:01.083Z,26.51
2023-02-25T14:49:47.439Z,27.80
2023-02-25T14:52:18.194Z,28.73
2023-02-25T14:54:46.146Z,28.95
2023-02-25T14:57:23.159Z,29.24
2023-02-25T15:00:23.471Z,29.28
2023-02-25T15:02:54.542Z,29.22
2023-02-25T15:05:35.192Z,29.43
2023-02-25T15:08:32.469Z,29.93
2023-02-25T15:11:26.911Z,30.32
2023-02-25T15:14:14.008Z,30.60
2023-02-25T15:17:00.452Z,31.20
2023-02-25T15:19:39.384Z,31.91
2023-02-25T15:22:21.447Z,31.42
2023-02-25T15:24:50.172Z,31.77
2023-02-25T15:27:36.605Z,32.63
2023-02-25T15:30:09.252Z,32.82
2023-02-25T15:33:06.424Z,32.99
2023-02-25T15:35:34.340Z,32.74
2023-02-25T15:38:05.025Z,33.58
2023-02-25T15:40:33.074Z,34.40
2023-02-25T15:43:21.484Z,34.68
2023-02-25T15:46:12.723Z,34.69
2023-02-25T15:48:42.851Z,34.54
2023-02-25T15:51:12.242Z,35.08
2023-02-25T15:53:41.871Z,35.86
2023-02-25T15:56:30.152Z,36.30
2023-02-25T15:58:59.074Z,36.42
2023-02-25T16:01:27.429Z,36.40
2023-02-25T16:03:55.937Z,36.16
2023-02-25T16:06:39.167Z,35.75
2023-02-25T16:09:10.063Z,35.10
2023-02-25T16:11:39.817Z,34.56
2023-02-25T16:14:28.039Z,34.43
2023-02-25T16:16:57.818Z,34.27
2023-02-25T16:19:27.864Z,34.14
2023-02-25T16:22:04.037Z,34.43
2023-02-25T16:24:32.568Z,34.30
2023-02-25T16:27:03.479Z,34.40
2023-02-25T16:29:51.017Z,34.33
2023-02-25T16:32:37.809Z,34.05
2023-02-25T16:35:08.961Z,34.43
2023-02-25T16:37:40.015Z,34.66
2023-02-25T16:40:28.239Z,34.91
2023-02-25T16:42:58.287Z,35.11
2023-02-25T16:45:31.834Z,35.29
2023-02-25T16:48:02.178Z,35.73
2023-02-25T16:50:30.966Z,35.83
2023-02-25T16:52:59.641Z,36.26
2023-02-25T16:55:29.405Z,36.24
2023-02-25T16:58:01.488Z,36.42
2023-02-25T17:00:30.008Z,36.78
2023-02-25T17:03:02.403Z,36.96
2023-02-25T17:05:32.772Z,37.15
2023-02-25T17:08:02.645Z,36.86
2023-02-25T17:10:32.617Z,36.44
2023-02-25T17:13:02.801Z,35.94
2023-02-25T17:15:32.712Z,35.41
2023-02-25T17:18:14.962Z,35.43
2023-02-25T17:20:43.255Z,35.33
2023-02-25T17:23:13.821Z,35.04
2023-02-25T17:25:45.094Z,34.92
2023-02-25T17:28:19.594Z,34.55
2023-02-25T17:30:48.125Z,34.49
2023-02-25T17:33:26.997Z,34.31
2023-02-25T17:36:00.086Z,33.99
2023-02-25T17:38:28.839Z,33.77
2023-02-25T17:40:57.202Z,33.55
2023-02-25T17:43:33.010Z,33.16
2023-02-25T17:46:03.288Z,32.84
2023-02-25T17:48:33.179Z,32.49
2023-02-25T17:51:04.379Z,32.29
2023-02-25T17:53:35.125Z,32.03
2023-02-25T17:56:18.533Z,31.96
2023-02-25T17:58:47.667Z,31.81
2023-02-25T18:01:20.757Z,31.69
2023-02-25T18:03:49.177Z,32.16
2023-02-25T18:06:26.392Z,32.28
2023-02-25T18:08:55.161Z,32.35
2023-02-25T18:11:31.716Z,32.08
2023-02-25T18:14:05.196Z,31.84
2023-02-25T18:16:37.962Z,31.72
2023-02-25T18:19:11.959Z,31.83
2023-02-25T18:21:41.328Z,31.79
2023-02-25T18:24:22.155Z,31.64
2023-02-25T18:27:04.528Z,31.75
2023-02-25T18:29:33.710Z,31.82
2023-02-25T18:32:01.738Z,31.71
2023-02-25T18:34:30.873Z,31.92
2023-02-25T18:36:58.984Z,31.87
2023-02-25T18:39:27.149Z,31.79
2023-02-25T18:41:55.203Z,31.98
2023-02-25T18:44:23.652Z,32.09
2023-02-25T18:46:51.622Z,32.24
2023-02-25T18:49:21.577Z,32.35
2023-02-25T18:51:53.535Z,32.58
2023-02-25T18:54:21.974Z,32.66
2023-02-25T18:56:50.109Z,32.89
2023-02-25T18:59:18.431Z,33.01
2023-02-25T19:01:46.525Z,32.85
2023-02-25T19:04:16.519Z,33.05
2023-02-25T19:06:44.587Z,33.16
2023-02-25T19:09:12.637Z,33.25
2023-02-25T19:11:41.760Z,33.37
2023-02-25T19:14:16.397Z,33.50
2023-02-25T19:16:44.339Z,33.41
2023-02-25T19:19:12.395Z,33.61
2023-02-25T19:21:41.426Z,33.74
2023-02-25T19:24:11.736Z,33.59
2023-02-25T19:26:39.713Z,33.43
2023-02-25T19:29:07.962Z,33.33
2023-02-25T19:31:36.047Z,33.67
2023-02-25T19:34:04.090Z,33.64
2023-02-25T19:36:32.392Z,33.50
2023-02-25T19:39:00.552Z,33.65
2023-02-25T19:41:28.622Z,33.56
2023-02-25T19:43:56.722Z,33.80
2023-02-25T19:46:25.381Z,33.60
2023-02-25T19:48:53.609Z,34.03
2023-02-25T19:51:22.031Z,33.87
2023-02-25T19:53:50.051Z,34.19
2023-02-25T19:56:18.321Z,34.30
2023-02-25T19:58:46.551Z,34.58
2023-02-25T20:01:14.589Z,34.22
2023-02-25T20:03:42.577Z,34.20
2023-02-25T20:06:13.485Z,34.38
2023-02-25T20:08:41.596Z,34.45
2023-02-25T20:11:10.512Z,34.84
2023-02-25T20:13:38.839Z,34.55
2023-02-25T20:16:07.216Z,34.57
2023-02-25T20:18:35.265Z,34.97
2023-02-25T20:21:03.921Z,34.46
2023-02-25T20:23:31.889Z,34.83
2023-02-25T20:26:07.265Z,34.87
2023-02-25T20:28:35.708Z,34.96
2023-02-25T20:31:08.160Z,34.94
2023-02-25T20:33:36.405Z,34.95
2023-02-25T20:36:16.090Z,35.15
2023-02-25T20:39:07.275Z,35.13
2023-02-25T20:41:35.805Z,35.10
2023-02-25T20:44:03.872Z,35.06
2023-02-25T20:46:32.077Z,35.50
2023-02-25T20:49:00.704Z,35.08
2023-02-25T20:51:29.003Z,35.42
2023-02-25T20:53:57.154Z,35.39
2023-02-25T20:56:27.175Z,35.47
2023-02-25T20:58:55.354Z,35.47
2023-02-25T21:01:23.466Z,35.51
2023-02-25T21:03:51.870Z,35.58
2023-02-25T21:06:23.218Z,35.32
2023-02-25T21:08:52.595Z,35.59
2023-02-25T21:11:20.950Z,35.58
2023-02-25T21:13:49.584Z,35.55
2023-02-25T21:16:18.332Z,35.80
2023-02-25T21:18:46.699Z,35.85
2023-02-25T21:21:15.902Z,35.81
2023-02-25T21:23:44.570Z,35.98
2023-02-25T21:26:12.811Z,35.72
2023-02-25T21:28:41.498Z,36.04
2023-02-25T21:31:14.918Z,36.20
2023-02-25T21:33:42.942Z,36.29
2023-02-25T21:36:11.132Z,36.53
2023-02-25T21:38:39.769Z,36.29
2023-02-25T21:41:12.615Z,36.38
2023-02-25T21:43:41.219Z,36.56
2023-02-25T21:46:10.809Z,36.47
2023-02-25T21:48:39.488Z,36.50
2023-02-25T21:51:08.222Z,36.44
2023-02-25T21:53:36.262Z,36.44
2023-02-25T21:56:08.822Z,36.36
2023-02-25T21:58:36.835Z,36.34
2023-02-25T22:01:25.615Z,36.42
2023-02-25T22:03:54.113Z,36.40
2023-02-25T22:06:22.813Z,36.31
2023-02-25T22:08:52.350Z,36.38
2023-02-25T22:11:21.863Z,36.57
2023-02-25T22:13:49.868Z,36.60
2023-02-25T22:16:18.348Z,36.83
2023-02-25T22:18:46.677Z,36.96
2023-02-25T22:21:19.539Z,37.01
2023-02-25T22:23:48.638Z,37.35
2023-02-25T22:26:18.268Z,37.30
2023-02-25T22:28:46.848Z,37.42
2023-02-25T22:31:16.188Z,37.95
2023-02-25T22:33:45.183Z,38.19
2023-02-25T22:36:13.988Z,38.03
2023-02-25T22:38:43.050Z,38.16
2023-02-25T22:41:15.989Z,38.21
2023-02-25T22:43:44.080Z,38.13
2023-02-25T22:46:14.085Z,38.06
2023-02-25T22:48:43.806Z,38.20
2023-02-25T22:51:17.665Z,38.23
2023-02-25T22:53:45.889Z,38.26
2023-02-25T22:56:13.874Z,38.23
2023-02-25T22:58:42.266Z,38.18
2023-02-25T23:01:12.102Z,38.15
2023-02-25T23:03:41.086Z,38.04
2023-02-25T23:06:09.605Z,37.93
2023-02-25T23:08:40.848Z,38.02
2023-02-25T23:11:10.729Z,37.93
2023-02-25T23:13:39.732Z,37.92
2023-02-25T23:16:07.789Z,37.97
2023-02-25T23:18:35.729Z,38.08
2023-02-25T23:21:04.509Z,38.06
2023-02-25T23:23:32.550Z,38.28
2023-02-25T23:26:00.499Z,38.35
2023-02-25T23:28:28.695Z,38.29
2023-02-25T23:30:56.679Z,38.35
2023-02-25T23:33:25.509Z,38.38
2023-02-25T23:35:53.475Z,38.40
2023-02-25T23:38:21.992Z,38.59
2023-02-25T23:40:50.068Z,38.47
2023-02-25T23:43:18.289Z,38.48
2023-02-25T23:45:47.198Z,38.48
2023-02-25T23:48:16.210Z,38.51
2023-02-25T23:50:44.209Z,38.62
2023-02-25T23:53:12.277Z,38.63
2023-02-25T23:55:40.458Z,38.74
2023-02-25T23:58:08.875Z,38.74
